Allegany, Oregon
Current Conditions -  °F | °C
As of 1:35 PM on Friday 19 Dec 2014 (Local Time) from KOTH Reporting Station
Broken Clouds Broken Clouds  
Wind Chill: 54°   Ceiling: 3300
Heat Index: 54°   Visibility: 10mi
Dew Point: 48°   Wind: 12mph
Humidity: 82%   Direction: 160°SSE
Pressure: 30.02"   Gusts: NA
Location:  43.43°N, 124.03°W
Report Text: KOTH 192135Z 16010KT 10SM SCT023 BKN033 BKN049 12/09 A3002 RMK AO1
Loading
Personal Weather Stations






























Interactive Weather Map New forecast layout! Learn more

10-Day Weather Forecast

Advertisements
Track Severe Weather on mobile